Time;durP1;ratioP1;P1;durP2;ratioP2;P2;SDS_P1;SDS_P2;PMS_P1;PMS_P2;Temp;Humidity;BMP_temperature;BMP_pressure;BME280_temperature;BME280_humidity;BME280_pressure;Samples;Min_cycle;Max_cycle;Signal;HPM_P1;HPM_P2
2023/12/13 00:01:28;;;;;;;45.57;42.60;;;;;;;;;;4991405;28;20519;-79
2023/12/13 00:03:56;;;;;;;49.30;45.83;;;;;;;;;;4992235;28;20453;-78
2023/12/13 00:06:23;;;;;;;47.53;44.07;;;;;;;;;;4992736;28;20531;-78
2023/12/13 00:08:50;;;;;;;43.03;39.93;;;;;;;;;;5011542;28;20491;-79
2023/12/13 00:11:17;;;;;;;44.10;41.00;;;;;;;;;;5012795;28;20861;-77
2023/12/13 00:13:45;;;;;;;43.17;40.17;;;;;;;;;;5015250;28;20460;-78
2023/12/13 00:16:12;;;;;;;45.70;42.40;;;;;;;;;;5015789;28;20558;-77
2023/12/13 00:18:39;;;;;;;45.00;42.13;;;;;;;;;;5015550;28;20481;-78
2023/12/13 00:21:08;;;;;;;47.50;44.10;;;;;;;;;;5014937;28;20455;-78
2023/12/13 00:23:35;;;;;;;45.73;42.57;;;;;;;;;;5015307;28;20487;-79
2023/12/13 00:26:02;;;;;;;46.63;42.93;;;;;;;;;;5014861;28;20896;-78
2023/12/13 00:28:30;;;;;;;43.57;40.40;;;;;;;;;;5015157;28;20494;-78
2023/12/13 00:30:57;;;;;;;44.07;41.07;;;;;;;;;;5014899;28;20464;-78
2023/12/13 00:33:24;;;;;;;43.70;40.63;;;;;;;;;;5015014;28;20495;-78
2023/12/13 00:35:51;;;;;;;46.07;42.80;;;;;;;;;;5012088;28;20496;-79
2023/12/13 00:38:19;;;;;;;46.17;43.10;;;;;;;;;;4995726;28;20937;-79
2023/12/13 00:40:46;;;;;;;43.77;40.90;;;;;;;;;;4994990;28;20806;-77
2023/12/13 00:43:13;;;;;;;31.17;29.57;;;;;;;;;;4995752;28;20445;-78
2023/12/13 00:45:40;;;;;;;30.53;28.83;;;;;;;;;;5001916;28;20461;-78
2023/12/13 00:48:08;;;;;;;47.60;45.03;;;;;;;;;;5010844;28;20501;-79
2023/12/13 00:50:35;;;;;;;56.97;53.80;;;;;;;;;;4996172;28;20463;-79
2023/12/13 00:53:02;;;;;;;63.77;60.60;;;;;;;;;;4997099;28;20453;-79
2023/12/13 00:55:30;;;;;;;67.73;64.00;;;;;;;;;;4996777;28;20778;-80
2023/12/13 00:57:57;;;;;;;75.10;71.37;;;;;;;;;;4996506;28;20499;-79
2023/12/13 01:00:24;;;;;;;79.90;75.80;;;;;;;;;;4996330;28;20468;-79
2023/12/13 01:02:51;;;;;;;83.23;78.63;;;;;;;;;;4996452;28;20445;-78
2023/12/13 01:05:18;;;;;;;87.57;82.77;;;;;;;;;;4996207;28;20437;-79
2023/12/13 01:07:45;;;;;;;83.50;79.10;;;;;;;;;;4996068;28;20547;-79
2023/12/13 01:10:12;;;;;;;90.70;85.87;;;;;;;;;;4996315;28;20412;-78
2023/12/13 01:12:42;;;;;;;90.90;85.70;;;;;;;;;;4995776;28;20424;-78
2023/12/13 01:15:11;;;;;;;93.67;87.60;;;;;;;;;;4996468;28;20446;-78
2023/12/13 01:17:38;;;;;;;89.57;84.30;;;;;;;;;;4996457;28;20480;-79
2023/12/13 01:20:09;;;;;;;96.53;91.33;;;;;;;;;;4996991;28;20476;-79
2023/12/13 01:22:36;;;;;;;93.17;88.10;;;;;;;;;;4995976;28;20426;-79
2023/12/13 01:25:03;;;;;;;100.43;94.93;;;;;;;;;;4996694;28;20874;-78
2023/12/13 01:27:30;;;;;;;99.20;94.00;;;;;;;;;;4996325;28;20481;-78
2023/12/13 01:29:58;;;;;;;99.27;94.07;;;;;;;;;;4996764;28;20485;-79
2023/12/13 01:32:25;;;;;;;97.43;92.13;;;;;;;;;;4996388;28;20496;-78
2023/12/13 01:34:52;;;;;;;96.37;91.40;;;;;;;;;;4996828;28;21280;-79
2023/12/13 01:37:19;;;;;;;102.37;97.00;;;;;;;;;;4997308;28;20563;-78
2023/12/13 01:39:46;;;;;;;91.63;86.83;;;;;;;;;;4997194;28;20449;-80
2023/12/13 01:42:13;;;;;;;95.03;89.73;;;;;;;;;;4996187;28;20488;-79
2023/12/13 01:44:40;;;;;;;92.97;87.70;;;;;;;;;;5013951;28;20457;-78
2023/12/13 01:47:10;;;;;;;97.43;92.00;;;;;;;;;;5016606;28;20622;-79
2023/12/13 01:49:37;;;;;;;95.93;90.83;;;;;;;;;;5016045;28;21329;-80
2023/12/13 01:52:05;;;;;;;92.47;87.37;;;;;;;;;;5015275;28;20448;-78
2023/12/13 01:54:32;;;;;;;94.30;89.20;;;;;;;;;;5015386;28;20461;-79
2023/12/13 01:57:00;;;;;;;93.90;88.53;;;;;;;;;;5015744;28;20515;-79
2023/12/13 01:59:28;;;;;;;95.60;90.00;;;;;;;;;;5016140;28;20523;-79
2023/12/13 02:01:55;;;;;;;95.67;90.10;;;;;;;;;;5015548;28;20498;-78
2023/12/13 02:04:25;;;;;;;96.97;91.23;;;;;;;;;;5016195;28;20456;-79
2023/12/13 02:06:52;;;;;;;94.43;88.40;;;;;;;;;;5017625;28;20465;-80
2023/12/13 02:09:19;;;;;;;97.97;92.27;;;;;;;;;;5017935;28;20917;-79
2023/12/13 02:11:46;;;;;;;98.70;93.03;;;;;;;;;;5017123;28;20441;-79
2023/12/13 02:14:14;;;;;;;95.67;90.17;;;;;;;;;;5018175;28;20940;-78
2023/12/13 02:16:41;;;;;;;95.43;89.87;;;;;;;;;;5017499;28;21024;-81
2023/12/13 02:19:09;;;;;;;99.77;93.90;;;;;;;;;;5017658;28;20871;-80
2023/12/13 02:21:37;;;;;;;101.00;95.07;;;;;;;;;;5017374;28;20477;-79
2023/12/13 02:24:08;;;;;;;102.47;96.07;;;;;;;;;;5017846;28;20437;-79
2023/12/13 02:26:37;;;;;;;108.07;101.43;;;;;;;;;;5017458;28;20461;-79
2023/12/13 02:29:04;;;;;;;106.90;100.60;;;;;;;;;;5017588;28;20480;-80
2023/12/13 02:31:31;;;;;;;107.33;100.87;;;;;;;;;;5017097;28;20440;-79
2023/12/13 02:33:58;;;;;;;102.67;96.93;;;;;;;;;;5017126;28;20445;-80
2023/12/13 02:36:25;;;;;;;107.90;101.27;;;;;;;;;;5017926;28;20472;-80
2023/12/13 02:38:52;;;;;;;106.93;100.47;;;;;;;;;;5017901;28;20487;-79
2023/12/13 02:41:20;;;;;;;104.27;98.33;;;;;;;;;;5013789;28;20453;-79
2023/12/13 02:43:47;;;;;;;108.90;102.30;;;;;;;;;;5016614;28;20449;-79
2023/12/13 02:46:14;;;;;;;110.97;102.90;;;;;;;;;;5015831;28;20456;-79
2023/12/13 02:48:41;;;;;;;105.93;99.67;;;;;;;;;;5015051;28;20480;-78
2023/12/13 02:51:08;;;;;;;108.67;102.57;;;;;;;;;;5014741;28;20483;-79
2023/12/13 02:53:35;;;;;;;107.67;101.13;;;;;;;;;;5015685;28;20448;-79
2023/12/13 02:56:02;;;;;;;111.03;104.10;;;;;;;;;;5015609;28;20523;-80
2023/12/13 02:58:31;;;;;;;109.83;103.10;;;;;;;;;;5015167;28;20441;-78
2023/12/13 03:00:58;;;;;;;104.47;98.47;;;;;;;;;;5014194;28;20441;-79
2023/12/13 03:03:25;;;;;;;102.50;96.60;;;;;;;;;;5014809;28;20847;-79
2023/12/13 03:05:52;;;;;;;108.10;102.10;;;;;;;;;;5014497;28;20434;-79
2023/12/13 03:08:19;;;;;;;103.27;97.47;;;;;;;;;;5014522;28;20484;-80
2023/12/13 03:10:46;;;;;;;100.97;95.40;;;;;;;;;;5014069;28;20452;-78
2023/12/13 03:13:13;;;;;;;105.30;99.60;;;;;;;;;;5014851;28;20478;-78
2023/12/13 03:15:41;;;;;;;107.47;101.00;;;;;;;;;;5013293;28;20793;-80
2023/12/13 03:18:08;;;;;;;111.60;105.30;;;;;;;;;;4994993;28;20493;-78
2023/12/13 03:20:35;;;;;;;111.73;105.63;;;;;;;;;;4994586;28;20512;-80
2023/12/13 03:23:07;;;;;;;110.40;104.30;;;;;;;;;;4994993;28;21261;-79
2023/12/13 03:25:34;;;;;;;109.83;103.90;;;;;;;;;;4994743;28;20504;-78
2023/12/13 03:28:01;;;;;;;108.77;102.63;;;;;;;;;;4994453;28;20458;-78
2023/12/13 03:30:27;;;;;;;111.10;105.00;;;;;;;;;;4994098;28;20481;-79
2023/12/13 03:32:56;;;;;;;114.20;107.77;;;;;;;;;;4994677;28;20450;-78
2023/12/13 03:35:23;;;;;;;106.57;100.60;;;;;;;;;;4993660;28;20477;-79
2023/12/13 03:37:50;;;;;;;114.00;107.80;;;;;;;;;;4994483;28;20878;-78
2023/12/13 03:40:17;;;;;;;113.93;107.17;;;;;;;;;;4993896;28;20449;-79
2023/12/13 03:42:44;;;;;;;108.50;102.40;;;;;;;;;;4993679;28;20432;-78
2023/12/13 03:45:11;;;;;;;111.33;105.30;;;;;;;;;;4992978;28;20495;-79
2023/12/13 03:47:38;;;;;;;113.17;107.17;;;;;;;;;;4993944;28;20493;-77
2023/12/13 03:50:07;;;;;;;109.03;102.13;;;;;;;;;;4993895;28;20489;-78
2023/12/13 03:52:33;;;;;;;106.43;100.50;;;;;;;;;;4993476;28;20515;-80
2023/12/13 03:55:00;;;;;;;106.57;100.50;;;;;;;;;;4995296;28;20449;-79
2023/12/13 03:57:28;;;;;;;111.90;105.90;;;;;;;;;;4994922;28;20487;-78
2023/12/13 03:59:55;;;;;;;115.03;108.70;;;;;;;;;;4995166;28;20952;-79
2023/12/13 04:02:21;;;;;;;107.43;101.13;;;;;;;;;;4994099;28;20840;-79
2023/12/13 04:04:48;;;;;;;107.00;100.60;;;;;;;;;;4994282;28;20941;-80
2023/12/13 04:07:17;;;;;;;108.87;102.63;;;;;;;;;;4994406;28;20469;-79
2023/12/13 04:09:44;;;;;;;106.47;100.33;;;;;;;;;;4994111;28;20481;-79
2023/12/13 04:12:11;;;;;;;112.60;106.10;;;;;;;;;;4993819;28;20480;-79
2023/12/13 04:14:38;;;;;;;109.27;103.07;;;;;;;;;;4994613;28;20461;-80
2023/12/13 04:17:05;;;;;;;115.40;108.37;;;;;;;;;;4994355;28;20477;-78
2023/12/13 04:19:32;;;;;;;110.97;104.73;;;;;;;;;;4994110;28;20461;-80
2023/12/13 04:21:59;;;;;;;111.43;104.93;;;;;;;;;;4994262;28;20469;-79
2023/12/13 04:24:28;;;;;;;113.77;106.03;;;;;;;;;;4995230;28;20516;-79
2023/12/13 04:26:55;;;;;;;111.30;104.47;;;;;;;;;;4995190;28;20469;-81
2023/12/13 04:29:22;;;;;;;109.77;102.77;;;;;;;;;;4995205;28;20543;-79
2023/12/13 04:31:49;;;;;;;109.50;103.00;;;;;;;;;;4994544;28;20512;-79
2023/12/13 04:34:16;;;;;;;113.47;106.13;;;;;;;;;;4995326;28;20910;-79
2023/12/13 04:36:44;;;;;;;109.87;103.00;;;;;;;;;;4994738;28;20489;-80
2023/12/13 04:39:11;;;;;;;103.07;96.50;;;;;;;;;;4994978;28;20461;-78
2023/12/13 04:41:39;;;;;;;106.90;100.70;;;;;;;;;;4993848;28;20449;-79
2023/12/13 04:44:08;;;;;;;106.60;100.23;;;;;;;;;;4994859;28;20449;-79
2023/12/13 04:46:35;;;;;;;112.93;106.13;;;;;;;;;;4995344;28;20481;-79
2023/12/13 04:49:02;;;;;;;112.67;105.90;;;;;;;;;;4995345;28;20507;-79
2023/12/13 04:51:29;;;;;;;110.07;103.63;;;;;;;;;;4994552;28;20494;-78
2023/12/13 04:53:56;;;;;;;108.93;102.53;;;;;;;;;;4994781;28;20428;-79
2023/12/13 04:56:23;;;;;;;108.57;102.13;;;;;;;;;;4995399;28;20543;-79
2023/12/13 04:58:51;;;;;;;111.90;105.10;;;;;;;;;;4999045;28;20441;-79
2023/12/13 05:01:18;;;;;;;114.20;106.63;;;;;;;;;;4998306;28;20457;-80
2023/12/13 05:03:44;;;;;;;104.73;97.73;;;;;;;;;;4998539;28;20441;-80
2023/12/13 05:06:12;;;;;;;109.57;103.17;;;;;;;;;;4998567;28;20480;-79
2023/12/13 05:08:38;;;;;;;105.77;98.47;;;;;;;;;;4997630;28;20495;-79
2023/12/13 05:11:06;;;;;;;111.17;104.30;;;;;;;;;;4998240;28;20449;-80
2023/12/13 05:13:33;;;;;;;109.47;101.87;;;;;;;;;;4998238;28;20445;-78
2023/12/13 05:16:01;;;;;;;109.60;102.23;;;;;;;;;;4997989;28;20829;-80
2023/12/13 05:18:28;;;;;;;107.23;100.23;;;;;;;;;;4998484;28;20461;-79
2023/12/13 05:20:55;;;;;;;103.93;97.77;;;;;;;;;;4997660;28;20919;-78
2023/12/13 05:23:22;;;;;;;101.77;95.50;;;;;;;;;;4997836;28;20449;-79
2023/12/13 05:25:51;;;;;;;104.70;97.97;;;;;;;;;;4997578;28;20460;-79
2023/12/13 05:28:18;;;;;;;100.47;94.20;;;;;;;;;;4998092;28;20442;-78
2023/12/13 05:30:45;;;;;;;100.33;94.20;;;;;;;;;;4997164;28;20531;-79
2023/12/13 05:33:13;;;;;;;100.13;93.93;;;;;;;;;;4997087;28;20450;-78
2023/12/13 05:35:40;;;;;;;103.47;97.07;;;;;;;;;;4997929;28;20445;-79
2023/12/13 05:38:07;;;;;;;98.93;92.83;;;;;;;;;;4997759;28;20457;-79
2023/12/13 05:40:34;;;;;;;105.73;98.73;;;;;;;;;;4996730;28;20568;-80
2023/12/13 05:43:01;;;;;;;99.10;92.80;;;;;;;;;;4997615;28;20453;-78
2023/12/13 05:45:28;;;;;;;99.60;92.30;;;;;;;;;;4997223;28;20880;-79
2023/12/13 05:47:55;;;;;;;101.77;95.10;;;;;;;;;;4997889;28;21267;-80
2023/12/13 05:50:24;;;;;;;106.20;98.90;;;;;;;;;;4997396;28;20535;-80
2023/12/13 05:52:51;;;;;;;100.83;93.73;;;;;;;;;;4997887;28;20933;-78
2023/12/13 05:55:18;;;;;;;95.00;88.90;;;;;;;;;;5000797;28;20518;-79
2023/12/13 05:57:45;;;;;;;95.37;89.20;;;;;;;;;;5017297;28;20477;-79
2023/12/13 06:00:13;;;;;;;99.50;92.23;;;;;;;;;;5016722;28;20449;-79
2023/12/13 06:02:40;;;;;;;94.70;88.03;;;;;;;;;;5016489;28;20464;-79
2023/12/13 06:05:07;;;;;;;93.47;86.93;;;;;;;;;;5017300;28;20448;-78
2023/12/13 06:07:35;;;;;;;91.47;85.47;;;;;;;;;;5016665;28;20473;-79
2023/12/13 06:10:02;;;;;;;97.37;90.30;;;;;;;;;;5015897;28;20566;-79
2023/12/13 06:12:29;;;;;;;94.77;88.13;;;;;;;;;;5016764;28;20456;-79
2023/12/13 06:14:58;;;;;;;93.53;87.33;;;;;;;;;;5017007;28;20444;-79
2023/12/13 06:17:25;;;;;;;108.77;100.87;;;;;;;;;;5016341;28;20840;-78
2023/12/13 06:19:52;;;;;;;98.80;92.30;;;;;;;;;;5016204;28;20468;-79
2023/12/13 06:22:19;;;;;;;102.27;95.70;;;;;;;;;;5015611;28;20445;-79
2023/12/13 06:24:47;;;;;;;98.20;91.80;;;;;;;;;;5016054;28;20499;-79
2023/12/13 06:27:14;;;;;;;95.77;88.87;;;;;;;;;;5016286;28;20469;-79
2023/12/13 06:29:41;;;;;;;91.47;85.60;;;;;;;;;;5016995;28;20488;-78
2023/12/13 06:32:08;;;;;;;94.13;87.93;;;;;;;;;;5015815;28;20501;-80
2023/12/13 06:34:35;;;;;;;99.17;92.27;;;;;;;;;;5016595;28;20932;-80
2023/12/13 06:37:02;;;;;;;94.90;88.30;;;;;;;;;;5016274;28;20451;-80
2023/12/13 06:39:29;;;;;;;92.07;85.77;;;;;;;;;;5010617;28;20453;-79
2023/12/13 06:41:57;;;;;;;93.93;87.37;;;;;;;;;;5014899;28;20503;-80
2023/12/13 06:44:24;;;;;;;97.20;91.17;;;;;;;;;;5015402;28;20453;-80
2023/12/13 06:46:51;;;;;;;92.10;85.63;;;;;;;;;;5015697;28;20495;-78
2023/12/13 06:49:18;;;;;;;96.50;90.00;;;;;;;;;;5015106;28;20904;-78
2023/12/13 06:51:45;;;;;;;98.57;91.63;;;;;;;;;;5015074;28;20442;-78
2023/12/13 06:54:12;;;;;;;102.80;96.50;;;;;;;;;;5015723;28;20456;-79
2023/12/13 06:56:39;;;;;;;98.23;91.60;;;;;;;;;;5015239;28;20856;-79
2023/12/13 06:59:08;;;;;;;98.27;92.00;;;;;;;;;;5002381;28;20472;-78
2023/12/13 07:01:35;;;;;;;96.23;89.63;;;;;;;;;;4998402;28;20461;-79
2023/12/13 07:04:02;;;;;;;96.23;90.23;;;;;;;;;;5001749;28;20523;-78
2023/12/13 07:06:29;;;;;;;95.50;89.23;;;;;;;;;;4995656;28;20465;-79
2023/12/13 07:08:56;;;;;;;92.97;87.17;;;;;;;;;;4994793;28;20465;-79
2023/12/13 07:11:24;;;;;;;98.47;91.37;;;;;;;;;;5003920;28;20477;-80
2023/12/13 07:13:51;;;;;;;95.40;89.50;;;;;;;;;;4996710;28;20460;-79
2023/12/13 07:16:19;;;;;;;93.60;87.00;;;;;;;;;;5015076;28;20531;-80
2023/12/13 07:18:46;;;;;;;95.97;89.67;;;;;;;;;;5014550;28;20448;-78
2023/12/13 07:21:13;;;;;;;99.93;92.87;;;;;;;;;;5014655;28;20440;-79
2023/12/13 07:23:40;;;;;;;97.10;90.73;;;;;;;;;;5016109;28;20441;-78
2023/12/13 07:26:08;;;;;;;97.33;90.53;;;;;;;;;;4997968;28;21340;-80
2023/12/13 07:28:35;;;;;;;100.97;93.87;;;;;;;;;;5002758;28;20448;-78
2023/12/13 07:31:04;;;;;;;103.73;96.43;;;;;;;;;;5013262;28;20489;-78
2023/12/13 07:33:34;;;;;;;99.50;93.50;;;;;;;;;;5013749;28;20902;-78
2023/12/13 07:36:01;;;;;;;93.40;87.37;;;;;;;;;;5015115;28;20469;-84
2023/12/13 07:38:28;;;;;;;94.33;88.33;;;;;;;;;;5015562;28;20455;-82
2023/12/13 07:40:55;;;;;;;95.97;89.00;;;;;;;;;;5013409;28;20480;-80
2023/12/13 07:43:22;;;;;;;95.40;88.53;;;;;;;;;;5019740;28;20507;-83
2023/12/13 07:45:52;;;;;;;90.60;84.47;;;;;;;;;;5016395;28;20452;-81
2023/12/13 07:48:20;;;;;;;91.77;85.73;;;;;;;;;;5017187;28;20506;-83
2023/12/13 07:50:49;;;;;;;93.10;87.07;;;;;;;;;;5004970;28;20940;-82
2023/12/13 07:53:15;;;;;;;93.60;87.70;;;;;;;;;;5006537;28;20499;-80
2023/12/13 07:55:42;;;;;;;94.67;88.83;;;;;;;;;;5005726;28;20460;-80
2023/12/13 07:58:09;;;;;;;94.73;88.57;;;;;;;;;;4998874;28;21127;-81
2023/12/13 08:00:36;;;;;;;92.57;86.13;;;;;;;;;;4997160;28;20438;-82
2023/12/13 08:03:05;;;;;;;92.87;86.73;;;;;;;;;;4996973;28;20477;-81
2023/12/13 08:05:32;;;;;;;90.47;84.13;;;;;;;;;;4997741;28;20465;-83
2023/12/13 08:08:00;;;;;;;89.83;84.03;;;;;;;;;;4997808;28;20492;-81
2023/12/13 08:10:27;;;;;;;93.43;87.83;;;;;;;;;;4997359;28;20481;-85
2023/12/13 08:12:54;;;;;;;84.70;79.10;;;;;;;;;;4997119;28;20441;-81
2023/12/13 08:15:21;;;;;;;89.80;84.50;;;;;;;;;;4998102;28;20485;-83
2023/12/13 08:17:48;;;;;;;87.83;81.97;;;;;;;;;;4997279;28;20516;-80
2023/12/13 08:20:15;;;;;;;90.93;85.10;;;;;;;;;;4997799;28;20426;-82
2023/12/13 08:22:42;;;;;;;88.87;82.87;;;;;;;;;;4997122;28;20434;-81
2023/12/13 08:25:11;;;;;;;88.43;82.70;;;;;;;;;;5001376;28;20507;-81
2023/12/13 08:27:39;;;;;;;87.20;80.97;;;;;;;;;;4997190;28;20472;-80
2023/12/13 08:30:07;;;;;;;89.83;84.57;;;;;;;;;;4998401;28;20497;-80
2023/12/13 08:32:34;;;;;;;88.67;82.77;;;;;;;;;;5018736;28;20448;-80
2023/12/13 08:35:02;;;;;;;85.23;80.10;;;;;;;;;;5019385;28;20448;-81
2023/12/13 08:37:29;;;;;;;84.37;78.83;;;;;;;;;;5021332;28;20821;-81
2023/12/13 08:39:57;;;;;;;83.43;78.03;;;;;;;;;;5020308;28;20491;-80
2023/12/13 08:42:25;;;;;;;82.67;77.50;;;;;;;;;;5018831;28;20864;-81
2023/12/13 08:44:52;;;;;;;81.90;76.73;;;;;;;;;;5020069;28;20442;-81
2023/12/13 08:47:21;;;;;;;83.43;78.63;;;;;;;;;;5019816;28;20481;-81
2023/12/13 08:49:48;;;;;;;83.27;78.27;;;;;;;;;;5023216;28;20963;-81
2023/12/13 08:52:17;;;;;;;82.63;77.40;;;;;;;;;;5006883;28;20831;-82
2023/12/13 08:54:44;;;;;;;82.97;77.80;;;;;;;;;;5005660;28;20491;-80
2023/12/13 08:57:11;;;;;;;89.03;83.60;;;;;;;;;;5017755;28;20527;-79
2023/12/13 08:59:39;;;;;;;84.10;78.93;;;;;;;;;;5022583;28;20456;-80
2023/12/13 09:02:07;;;;;;;81.23;76.23;;;;;;;;;;5008055;28;20464;-83
2023/12/13 09:04:34;;;;;;;82.23;77.33;;;;;;;;;;5008394;28;20501;-80
2023/12/13 09:07:01;;;;;;;82.87;77.90;;;;;;;;;;5022736;28;20456;-83
2023/12/13 09:09:28;;;;;;;83.87;78.73;;;;;;;;;;5021709;28;20448;-83
2023/12/13 09:11:55;;;;;;;84.20;79.07;;;;;;;;;;5020646;28;21027;-80
2023/12/13 09:14:22;;;;;;;87.67;82.20;;;;;;;;;;5010889;28;20481;-85
2023/12/13 09:16:50;;;;;;;86.17;80.17;;;;;;;;;;5001802;28;20473;-81
2023/12/13 09:19:17;;;;;;;83.00;78.20;;;;;;;;;;5000353;28;20446;-82
2023/12/13 09:21:44;;;;;;;81.83;76.90;;;;;;;;;;5002430;28;20946;-80
2023/12/13 09:24:12;;;;;;;83.07;78.40;;;;;;;;;;5020283;28;20558;-82
2023/12/13 09:26:39;;;;;;;83.73;78.53;;;;;;;;;;5000082;28;20528;-81
2023/12/13 09:29:07;;;;;;;87.33;82.10;;;;;;;;;;4999947;28;20452;-82
2023/12/13 09:31:35;;;;;;;86.33;81.37;;;;;;;;;;5003038;28;20493;-80
2023/12/13 09:34:03;;;;;;;89.10;83.80;;;;;;;;;;5000035;28;20487;-82
2023/12/13 09:36:30;;;;;;;89.90;84.10;;;;;;;;;;5000273;28;20473;-80
2023/12/13 09:38:57;;;;;;;89.40;84.60;;;;;;;;;;4998874;28;20449;-79
2023/12/13 09:41:27;;;;;;;85.43;80.77;;;;;;;;;;5006363;28;20468;-80
2023/12/13 09:43:55;;;;;;;82.50;78.00;;;;;;;;;;5016163;28;20461;-79
2023/12/13 09:46:22;;;;;;;84.00;79.10;;;;;;;;;;5017988;28;20461;-79
2023/12/13 09:48:50;;;;;;;82.03;77.53;;;;;;;;;;5017715;28;20453;-80
2023/12/13 09:51:19;;;;;;;84.53;79.23;;;;;;;;;;5016668;28;20854;-79
2023/12/13 09:53:49;;;;;;;77.30;73.10;;;;;;;;;;5017039;28;20449;-79
2023/12/13 09:56:16;;;;;;;82.33;77.23;;;;;;;;;;5017491;28;20473;-79
2023/12/13 09:58:43;;;;;;;83.23;78.20;;;;;;;;;;5016881;28;20457;-80
2023/12/13 10:01:12;;;;;;;80.90;76.50;;;;;;;;;;5012385;28;20483;-80
2023/12/13 10:03:40;;;;;;;80.07;75.37;;;;;;;;;;5012432;28;20496;-80
2023/12/13 10:06:08;;;;;;;79.80;75.03;;;;;;;;;;5016293;28;20519;-79
2023/12/13 10:08:37;;;;;;;81.20;76.80;;;;;;;;;;5016891;28;20452;-78
2023/12/13 10:11:04;;;;;;;81.13;76.80;;;;;;;;;;5016303;28;20545;-78
2023/12/13 10:13:31;;;;;;;79.20;74.80;;;;;;;;;;5018173;28;20572;-80
2023/12/13 10:16:07;;;;;;;77.03;73.03;;;;;;;;;;5014805;28;20664;-83
2023/12/13 10:18:35;;;;;;;78.63;74.00;;;;;;;;;;5012801;28;20464;-82
2023/12/13 10:21:03;;;;;;;76.43;72.23;;;;;;;;;;5010866;28;20461;-80
2023/12/13 10:23:30;;;;;;;78.07;74.07;;;;;;;;;;5013632;28;20464;-80
2023/12/13 10:25:58;;;;;;;80.60;76.10;;;;;;;;;;5016958;28;20847;-79
2023/12/13 10:28:25;;;;;;;76.87;72.87;;;;;;;;;;5017722;28;20448;-79
2023/12/13 10:30:52;;;;;;;80.33;75.90;;;;;;;;;;5015717;28;20902;-81
2023/12/13 10:33:19;;;;;;;73.40;69.27;;;;;;;;;;5018067;28;21020;-82
2023/12/13 10:35:47;;;;;;;74.60;70.40;;;;;;;;;;5017490;28;20456;-80
2023/12/13 10:38:15;;;;;;;76.00;71.60;;;;;;;;;;5017042;28;20452;-81
2023/12/13 10:40:42;;;;;;;75.57;71.10;;;;;;;;;;5017046;28;20445;-81
2023/12/13 10:43:11;;;;;;;72.70;68.57;;;;;;;;;;5015718;28;20487;-81
2023/12/13 10:45:40;;;;;;;73.47;69.47;;;;;;;;;;5017063;28;20507;-82
2023/12/13 10:48:09;;;;;;;76.13;71.93;;;;;;;;;;5000976;28;20511;-80
2023/12/13 10:50:36;;;;;;;77.27;73.07;;;;;;;;;;5000139;28;20480;-80
2023/12/13 10:53:03;;;;;;;73.70;69.13;;;;;;;;;;5006911;28;20536;-80
2023/12/13 10:55:31;;;;;;;76.57;72.00;;;;;;;;;;5006194;28;20457;-81
2023/12/13 10:57:58;;;;;;;74.10;70.20;;;;;;;;;;4998112;28;20453;-80
2023/12/13 11:00:27;;;;;;;71.77;67.80;;;;;;;;;;4998210;28;20481;-81
2023/12/13 11:02:57;;;;;;;72.43;68.53;;;;;;;;;;4999787;28;20457;-80
2023/12/13 11:05:25;;;;;;;76.43;72.00;;;;;;;;;;5017540;28;20448;-80
2023/12/13 11:07:52;;;;;;;74.13;70.07;;;;;;;;;;5016941;28;20511;-81
2023/12/13 11:10:22;;;;;;;77.93;73.53;;;;;;;;;;5016989;28;20483;-81
2023/12/13 11:12:49;;;;;;;77.67;73.17;;;;;;;;;;5016509;28;20464;-81
2023/12/13 11:15:18;;;;;;;78.50;74.20;;;;;;;;;;5016693;28;20453;-82
2023/12/13 11:17:48;;;;;;;74.67;70.50;;;;;;;;;;5017155;28;20541;-82
2023/12/13 11:20:15;;;;;;;73.40;69.40;;;;;;;;;;5016933;28;20455;-81
2023/12/13 11:22:44;;;;;;;74.30;70.50;;;;;;;;;;5015885;28;20894;-80
2023/12/13 11:25:11;;;;;;;72.70;68.17;;;;;;;;;;5016361;28;20530;-80
2023/12/13 11:27:41;;;;;;;72.10;67.93;;;;;;;;;;5015985;28;20526;-80
2023/12/13 11:30:13;;;;;;;71.83;67.40;;;;;;;;;;5016762;28;20461;-81
2023/12/13 11:32:43;;;;;;;71.03;67.20;;;;;;;;;;5015422;28;20488;-81
2023/12/13 11:35:13;;;;;;;67.57;63.30;;;;;;;;;;5016576;28;20441;-78
2023/12/13 11:37:41;;;;;;;68.27;64.50;;;;;;;;;;4998648;28;20496;-79
2023/12/13 11:40:09;;;;;;;69.97;65.87;;;;;;;;;;4997015;28;20453;-80
2023/12/13 11:42:36;;;;;;;72.53;67.63;;;;;;;;;;4996598;28;20454;-80
2023/12/13 11:45:04;;;;;;;73.17;69.47;;;;;;;;;;5015253;28;20453;-81
2023/12/13 11:47:31;;;;;;;68.10;64.00;;;;;;;;;;5015638;28;21241;-79
2023/12/13 11:49:58;;;;;;;70.23;66.33;;;;;;;;;;5016273;28;20427;-80
2023/12/13 11:52:27;;;;;;;72.53;68.20;;;;;;;;;;5015648;28;20490;-80
2023/12/13 11:54:54;;;;;;;69.10;65.30;;;;;;;;;;5015725;28;20945;-79
2023/12/13 11:57:21;;;;;;;71.53;67.33;;;;;;;;;;5016569;28;20479;-81
2023/12/13 11:59:50;;;;;;;73.93;70.00;;;;;;;;;;5015715;28;20455;-80
2023/12/13 12:02:17;;;;;;;68.60;64.80;;;;;;;;;;5015432;28;21220;-80
2023/12/13 12:04:45;;;;;;;68.73;64.90;;;;;;;;;;5015717;28;20925;-80
2023/12/13 12:07:14;;;;;;;68.93;64.97;;;;;;;;;;5017109;28;20495;-81
2023/12/13 12:09:42;;;;;;;69.80;65.57;;;;;;;;;;5020445;28;20494;-81
2023/12/13 12:12:10;;;;;;;67.10;63.30;;;;;;;;;;5024401;28;20483;-79
2023/12/13 12:14:38;;;;;;;71.23;67.23;;;;;;;;;;5019897;28;20464;-79
2023/12/13 12:17:05;;;;;;;84.03;77.77;;;;;;;;;;5020208;28;20479;-80
2023/12/13 12:19:32;;;;;;;74.90;70.07;;;;;;;;;;5020220;28;20460;-81
2023/12/13 12:22:02;;;;;;;68.47;64.67;;;;;;;;;;5019479;28;20503;-80
2023/12/13 12:24:29;;;;;;;66.27;62.43;;;;;;;;;;5019909;28;20464;-79
2023/12/13 12:27:07;;;;;;;69.87;65.87;;;;;;;;;;5019941;28;20464;-81
2023/12/13 12:29:34;;;;;;;67.13;63.57;;;;;;;;;;5019597;28;20995;-80
2023/12/13 12:32:01;;;;;;;66.30;62.40;;;;;;;;;;5018486;28;20514;-80
2023/12/13 12:34:28;;;;;;;69.97;66.17;;;;;;;;;;5019736;28;20525;-81
2023/12/13 12:36:55;;;;;;;70.53;66.50;;;;;;;;;;5019656;28;20530;-81
2023/12/13 12:39:22;;;;;;;72.07;68.07;;;;;;;;;;5019882;28;20452;-80
2023/12/13 12:41:49;;;;;;;73.17;68.57;;;;;;;;;;5018575;28;20503;-80
2023/12/13 12:44:18;;;;;;;77.43;73.47;;;;;;;;;;5019679;28;21086;-80
2023/12/13 12:46:45;;;;;;;78.03;73.63;;;;;;;;;;5019194;28;20481;-81
2023/12/13 12:49:12;;;;;;;82.23;77.77;;;;;;;;;;5020084;28;20490;-81
2023/12/13 12:51:39;;;;;;;80.00;75.60;;;;;;;;;;5019229;28;20887;-81
2023/12/13 12:54:07;;;;;;;78.60;74.20;;;;;;;;;;5019273;28;20495;-81
2023/12/13 12:56:36;;;;;;;79.20;74.47;;;;;;;;;;5019521;28;20616;-81
2023/12/13 12:59:03;;;;;;;77.53;73.23;;;;;;;;;;5018539;28;20503;-81
2023/12/13 13:01:32;;;;;;;80.53;75.47;;;;;;;;;;5019038;28;20488;-81
2023/12/13 13:03:59;;;;;;;79.97;75.43;;;;;;;;;;5019555;28;20475;-79
2023/12/13 13:06:26;;;;;;;80.80;76.10;;;;;;;;;;5019529;28;20534;-79
2023/12/13 13:08:53;;;;;;;77.63;73.43;;;;;;;;;;5018721;28;20452;-81
2023/12/13 13:11:20;;;;;;;77.40;73.27;;;;;;;;;;5018362;28;20550;-78
2023/12/13 13:13:47;;;;;;;78.10;73.70;;;;;;;;;;5020276;28;20494;-82
2023/12/13 13:16:14;;;;;;;78.43;73.87;;;;;;;;;;5011998;28;20864;-84
2023/12/13 13:18:42;;;;;;;80.97;76.87;;;;;;;;;;5017798;28;20488;-80
2023/12/13 13:21:09;;;;;;;76.53;72.37;;;;;;;;;;5018862;28;20453;-84
2023/12/13 13:23:36;;;;;;;74.87;70.47;;;;;;;;;;5019470;28;20546;-80
2023/12/13 13:26:04;;;;;;;77.03;72.47;;;;;;;;;;5019314;28;20468;-81
2023/12/13 13:28:31;;;;;;;77.03;72.83;;;;;;;;;;5019884;28;20543;-83
2023/12/13 13:30:58;;;;;;;80.67;75.87;;;;;;;;;;5020369;28;20448;-80
2023/12/13 13:33:25;;;;;;;77.03;73.03;;;;;;;;;;5018923;28;20526;-79
2023/12/13 13:35:54;;;;;;;75.13;70.87;;;;;;;;;;5019351;28;20534;-81
2023/12/13 13:38:21;;;;;;;80.37;75.50;;;;;;;;;;5021436;28;20519;-82
2023/12/13 13:40:48;;;;;;;81.77;77.47;;;;;;;;;;5006413;28;20461;-84
2023/12/13 13:43:15;;;;;;;82.17;77.23;;;;;;;;;;5022114;28;20502;-83
2023/12/13 13:45:42;;;;;;;75.63;71.33;;;;;;;;;;5022701;28;20486;-86
2023/12/13 13:48:09;;;;;;;78.23;74.03;;;;;;;;;;5023903;28;20452;-83
2023/12/13 13:50:36;;;;;;;78.00;73.83;;;;;;;;;;5019049;28;20461;-82
2023/12/13 13:53:05;;;;;;;78.67;74.03;;;;;;;;;;5018084;28;20476;-83
2023/12/13 13:55:32;;;;;;;82.50;77.87;;;;;;;;;;5019354;28;20528;-82
2023/12/13 13:57:59;;;;;;;79.57;75.27;;;;;;;;;;5019060;28;20456;-82
2023/12/13 14:00:27;;;;;;;81.30;76.53;;;;;;;;;;5005333;28;20500;-81
2023/12/13 14:02:54;;;;;;;80.17;75.77;;;;;;;;;;4999791;28;20866;-81
2023/12/13 14:05:21;;;;;;;79.50;74.90;;;;;;;;;;4999807;28;20942;-80
2023/12/13 14:07:48;;;;;;;77.47;72.57;;;;;;;;;;4998082;28;20489;-82
2023/12/13 14:10:16;;;;;;;74.97;70.40;;;;;;;;;;5009477;28;20464;-81
2023/12/13 14:12:43;;;;;;;74.57;70.27;;;;;;;;;;5018375;28;20514;-82